createdAt,value
2022-08-30T00:02:04.254Z,18.63
2022-08-30T00:04:32.025Z,18.60
2022-08-30T00:07:00.763Z,18.55
2022-08-30T00:09:28.412Z,18.50
2022-08-30T00:11:56.085Z,18.47
2022-08-30T00:14:23.790Z,18.42
2022-08-30T00:16:52.072Z,18.41
2022-08-30T00:19:19.754Z,18.39
2022-08-30T00:21:47.419Z,18.38
2022-08-30T00:24:15.131Z,18.35
2022-08-30T00:26:42.792Z,18.35
2022-08-30T00:29:10.482Z,18.34
2022-08-30T00:31:38.186Z,18.33
2022-08-30T00:34:06.219Z,18.34
2022-08-30T00:36:34.064Z,18.34
2022-08-30T00:39:01.777Z,18.34
2022-08-30T00:41:29.974Z,18.31
2022-08-30T00:43:58.236Z,18.29
2022-08-30T00:46:28.778Z,18.29
2022-08-30T00:48:57.472Z,18.25
2022-08-30T00:51:26.878Z,18.21
2022-08-30T00:53:57.853Z,18.18
2022-08-30T00:56:26.793Z,18.15
2022-08-30T00:58:58.235Z,18.13
2022-08-30T01:01:27.261Z,18.09
2022-08-30T01:03:58.214Z,18.08
2022-08-30T01:06:32.630Z,18.04
2022-08-30T01:09:01.885Z,18.03
2022-08-30T01:11:30.433Z,18.03
2022-08-30T01:13:58.993Z,18.02
2022-08-30T01:16:27.300Z,17.99
2022-08-30T01:18:59.210Z,17.98
2022-08-30T01:21:50.853Z,17.94
2022-08-30T01:24:20.132Z,17.90
2022-08-30T01:26:47.864Z,17.90
2022-08-30T01:29:21.055Z,17.89
2022-08-30T01:31:48.817Z,17.85
2022-08-30T01:34:16.528Z,17.82
2022-08-30T01:36:46.761Z,17.78
2022-08-30T01:39:17.066Z,17.73
2022-08-30T01:41:45.355Z,17.72
2022-08-30T01:44:15.219Z,17.68
2022-08-30T01:46:47.317Z,17.69
2022-08-30T01:49:18.951Z,17.67
2022-08-30T01:52:00.666Z,17.65
2022-08-30T01:54:33.293Z,17.59
2022-08-30T01:57:06.800Z,17.58
2022-08-30T01:59:34.551Z,17.55
2022-08-30T02:02:02.225Z,17.55
2022-08-30T02:04:29.948Z,17.53
2022-08-30T02:06:57.693Z,17.51
2022-08-30T02:09:25.484Z,17.50
2022-08-30T02:11:53.146Z,17.48
2022-08-30T02:14:21.235Z,17.47
2022-08-30T02:16:49.527Z,17.46
2022-08-30T02:19:19.090Z,17.47
2022-08-30T02:21:46.814Z,17.48
2022-08-30T02:24:14.470Z,17.48
2022-08-30T02:26:42.376Z,17.47
2022-08-30T02:29:10.386Z,17.47
2022-08-30T02:31:38.058Z,17.45
2022-08-30T02:34:05.752Z,17.43
2022-08-30T02:36:33.445Z,17.43
2022-08-30T02:39:01.186Z,17.44
2022-08-30T02:41:28.884Z,17.47
2022-08-30T02:43:59.580Z,17.45
2022-08-30T02:46:33.320Z,17.46
2022-08-30T02:49:29.944Z,17.46
2022-08-30T02:51:50.827Z,17.43
2022-08-30T02:54:21.085Z,17.44
2022-08-30T02:56:49.994Z,17.46
2022-08-30T02:59:19.150Z,17.43
2022-08-30T03:01:46.956Z,17.47
2022-08-30T03:04:14.719Z,17.43
2022-08-30T03:06:42.589Z,17.42
2022-08-30T03:09:10.392Z,17.40
2022-08-30T03:11:38.698Z,17.36
2022-08-30T03:14:06.452Z,17.33
2022-08-30T03:16:34.426Z,17.34
2022-08-30T03:19:02.160Z,17.33
2022-08-30T03:21:29.900Z,17.28
2022-08-30T03:23:57.608Z,17.25
2022-08-30T03:26:25.325Z,17.23
2022-08-30T03:28:53.050Z,17.22
2022-08-30T03:31:20.942Z,17.21
2022-08-30T03:33:48.729Z,17.15
2022-08-30T03:36:16.381Z,17.13
2022-08-30T03:38:44.068Z,17.14
2022-08-30T03:41:12.462Z,17.14
2022-08-30T03:43:40.817Z,17.12
2022-08-30T03:46:10.050Z,17.13
2022-08-30T03:48:38.017Z,17.11
2022-08-30T03:51:06.190Z,17.08
2022-08-30T03:53:34.377Z,17.08
2022-08-30T03:56:02.050Z,17.10
2022-08-30T03:58:30.095Z,17.12
2022-08-30T04:00:57.957Z,17.11
2022-08-30T04:03:27.078Z,17.12
2022-08-30T04:05:56.012Z,17.10
2022-08-30T04:08:23.866Z,17.08
2022-08-30T04:10:52.168Z,17.06
2022-08-30T04:13:20.478Z,17.06
2022-08-30T04:15:48.582Z,17.05
2022-08-30T04:18:16.840Z,17.05
2022-08-30T04:20:44.879Z,17.04
2022-08-30T04:23:13.569Z,17.04
2022-08-30T04:25:43.065Z,17.03
2022-08-30T04:28:11.705Z,17.02
2022-08-30T04:30:41.510Z,17.00
2022-08-30T04:33:09.583Z,16.96
2022-08-30T04:35:37.379Z,16.95
2022-08-30T04:38:05.213Z,16.91
2022-08-30T04:40:32.983Z,16.91
2022-08-30T04:43:01.262Z,16.88
2022-08-30T04:45:29.047Z,16.88
2022-08-30T04:47:57.293Z,16.89
2022-08-30T04:50:25.131Z,16.87
2022-08-30T04:52:52.914Z,16.89
2022-08-30T04:55:20.804Z,16.91
2022-08-30T04:57:49.002Z,16.91
2022-08-30T05:00:17.481Z,16.93
2022-08-30T05:02:45.397Z,16.94
2022-08-30T05:05:31.886Z,16.96
2022-08-30T05:08:00.337Z,16.97
2022-08-30T05:10:28.667Z,17.00
2022-08-30T05:12:56.511Z,17.04
2022-08-30T05:15:24.371Z,17.06
2022-08-30T05:17:52.154Z,17.08
2022-08-30T05:20:19.964Z,17.10
2022-08-30T05:22:53.448Z,17.11
2022-08-30T05:25:28.519Z,17.13
2022-08-30T05:27:57.015Z,17.15
2022-08-30T05:30:25.867Z,17.15
2022-08-30T05:32:54.062Z,17.19
2022-08-30T05:35:25.760Z,17.19
2022-08-30T05:37:54.902Z,17.21
2022-08-30T05:40:24.457Z,17.25
2022-08-30T05:42:52.739Z,17.27
2022-08-30T05:45:20.597Z,17.36
2022-08-30T05:47:48.942Z,17.38
2022-08-30T05:50:16.988Z,17.44
2022-08-30T05:52:46.223Z,17.49
2022-08-30T05:55:14.112Z,17.56
2022-08-30T05:57:42.602Z,17.58
2022-08-30T06:00:15.334Z,17.61
2022-08-30T06:02:43.863Z,17.66
2022-08-30T06:05:14.349Z,17.68
2022-08-30T06:07:42.731Z,17.68
2022-08-30T06:10:10.722Z,17.69
2022-08-30T06:12:38.442Z,17.73
2022-08-30T06:15:06.696Z,17.76
2022-08-30T06:17:34.401Z,17.78
2022-08-30T06:20:02.227Z,17.81
2022-08-30T06:22:30.009Z,17.92
2022-08-30T06:24:58.322Z,17.96
2022-08-30T06:27:26.209Z,18.02
2022-08-30T06:29:54.629Z,18.05
2022-08-30T06:32:22.399Z,18.14
2022-08-30T06:34:50.581Z,18.19
2022-08-30T06:37:29.119Z,18.20
2022-08-30T06:39:59.128Z,18.24
2022-08-30T06:42:32.890Z,18.32
2022-08-30T06:45:10.611Z,18.39
2022-08-30T06:47:39.526Z,18.41
2022-08-30T06:50:08.003Z,18.41
2022-08-30T06:52:43.997Z,18.43
2022-08-30T06:55:16.606Z,18.47
2022-08-30T06:57:45.193Z,18.51
2022-08-30T07:00:15.937Z,18.56
2022-08-30T07:02:44.077Z,18.58
2022-08-30T07:05:18.531Z,18.63
2022-08-30T07:07:46.511Z,18.68
2022-08-30T07:10:15.431Z,18.71
2022-08-30T07:12:43.160Z,18.76
2022-08-30T07:15:11.191Z,18.75
2022-08-30T07:17:57.527Z,18.80
2022-08-30T07:20:25.256Z,18.86
2022-08-30T07:22:52.929Z,18.91
2022-08-30T07:25:20.674Z,18.92
2022-08-30T07:27:48.404Z,18.98
2022-08-30T07:30:16.078Z,18.98
2022-08-30T07:32:43.750Z,19.03
2022-08-30T07:35:11.586Z,19.07
2022-08-30T07:37:39.254Z,19.13
2022-08-30T07:40:07.341Z,19.14
2022-08-30T07:42:35.221Z,19.15
2022-08-30T07:45:04.358Z,19.21
2022-08-30T07:47:32.688Z,19.21
2022-08-30T07:50:01.838Z,19.24
2022-08-30T07:52:30.805Z,19.34
2022-08-30T07:55:00.023Z,19.39
2022-08-30T07:57:27.966Z,19.46
2022-08-30T07:59:55.766Z,19.58
2022-08-30T08:02:23.697Z,19.72
2022-08-30T08:04:51.799Z,19.82
2022-08-30T08:07:19.849Z,19.97
2022-08-30T08:09:47.529Z,20.09
2022-08-30T08:12:15.335Z,20.19
2022-08-30T08:14:43.187Z,20.32
2022-08-30T08:17:11.144Z,20.44
2022-08-30T08:19:38.909Z,20.57
2022-08-30T08:22:20.675Z,20.65
2022-08-30T08:24:49.763Z,20.72
2022-08-30T08:27:18.214Z,20.84
2022-08-30T08:29:45.928Z,20.92
2022-08-30T08:32:13.641Z,20.97
2022-08-30T08:34:42.552Z,21.06
2022-08-30T08:37:10.330Z,21.14
2022-08-30T08:39:38.174Z,21.20
2022-08-30T08:42:21.832Z,21.23
2022-08-30T08:45:10.168Z,21.28
2022-08-30T08:47:57.636Z,21.36
2022-08-30T08:50:29.498Z,21.42
2022-08-30T08:53:45.500Z,21.50
2022-08-30T08:56:17.914Z,21.55
2022-08-30T08:58:48.434Z,21.59
2022-08-30T09:01:21.464Z,21.67
2022-08-30T09:03:49.698Z,21.71
2022-08-30T09:06:36.270Z,21.74
2022-08-30T09:09:04.561Z,21.82
2022-08-30T09:11:35.097Z,21.88
2022-08-30T09:14:02.944Z,21.97
2022-08-30T09:16:48.166Z,22.05
2022-08-30T09:19:36.487Z,22.11
2022-08-30T09:22:16.449Z,22.21
2022-08-30T09:24:48.273Z,22.28
2022-08-30T09:27:23.777Z,22.33
2022-08-30T09:29:59.760Z,22.39
2022-08-30T09:32:32.575Z,22.42
2022-08-30T09:35:00.572Z,22.45
2022-08-30T09:37:36.888Z,22.49
2022-08-30T09:40:13.228Z,22.52
2022-08-30T09:42:41.367Z,22.59
2022-08-30T09:45:21.229Z,22.69
2022-08-30T09:47:49.121Z,22.74
2022-08-30T09:50:24.778Z,22.82
2022-08-30T09:53:23.508Z,22.89
2022-08-30T09:56:04.791Z,22.94
2022-08-30T09:59:06.976Z,23.02
2022-08-30T10:01:41.924Z,23.10
2022-08-30T10:04:35.529Z,23.18
2022-08-30T10:07:29.108Z,23.27
2022-08-30T10:10:19.432Z,23.37
2022-08-30T10:13:04.513Z,23.45
2022-08-30T10:15:40.977Z,23.55
2022-08-30T10:18:22.016Z,23.62
2022-08-30T10:20:58.721Z,23.71
2022-08-30T10:23:35.179Z,23.78
2022-08-30T10:26:22.226Z,23.87
2022-08-30T10:28:56.984Z,23.91
2022-08-30T10:31:47.226Z,24.02
2022-08-30T10:34:32.380Z,24.14
2022-08-30T10:37:22.534Z,24.23
2022-08-30T10:40:00.268Z,24.34
2022-08-30T10:42:39.408Z,24.41
2022-08-30T10:45:14.923Z,24.53
2022-08-30T10:48:06.474Z,24.60
2022-08-30T10:50:41.516Z,24.70
2022-08-30T10:53:10.031Z,24.76
2022-08-30T10:55:49.945Z,24.82
2022-08-30T10:58:19.499Z,24.85
2022-08-30T11:00:51.553Z,24.87
2022-08-30T11:03:49.955Z,24.88
2022-08-30T11:06:40.760Z,24.91
2022-08-30T11:09:44.918Z,24.91
2022-08-30T11:12:34.859Z,24.96
2022-08-30T11:15:18.970Z,25.00
2022-08-30T11:18:06.750Z,25.06
2022-08-30T11:20:44.755Z,25.11
2022-08-30T11:23:22.997Z,25.17
2022-08-30T11:25:57.550Z,25.20
2022-08-30T11:28:37.960Z,25.23
2022-08-30T11:31:23.985Z,25.30
2022-08-30T11:33:54.631Z,25.35
2022-08-30T11:36:37.825Z,25.42
2022-08-30T11:39:35.112Z,25.47
2022-08-30T11:42:29.381Z,25.53
2022-08-30T11:45:25.026Z,25.61
2022-08-30T11:47:56.399Z,25.73
2022-08-30T11:50:56.065Z,25.82
2022-08-30T11:53:45.808Z,25.94
2022-08-30T11:56:34.622Z,26.07
2022-08-30T11:59:07.104Z,26.16
2022-08-30T12:01:42.206Z,26.22
2022-08-30T12:04:18.107Z,26.27
2022-08-30T12:06:54.032Z,26.36
2022-08-30T12:09:24.688Z,26.44
2022-08-30T12:12:02.016Z,26.51
2022-08-30T12:14:49.894Z,26.56
2022-08-30T12:17:42.885Z,26.59
2022-08-30T12:20:24.859Z,26.67
2022-08-30T12:22:54.651Z,26.73
2022-08-30T12:25:30.162Z,26.78
2022-08-30T12:28:21.991Z,26.82
2022-08-30T12:30:51.252Z,26.87
2022-08-30T12:33:30.322Z,26.87
2022-08-30T12:36:04.254Z,26.89
2022-08-30T12:38:32.874Z,26.87
2022-08-30T12:41:02.665Z,26.86
2022-08-30T12:43:48.857Z,26.84
2022-08-30T12:46:19.192Z,26.81
2022-08-30T12:48:49.358Z,26.79
2022-08-30T12:51:37.956Z,26.77
2022-08-30T12:54:15.848Z,26.77
2022-08-30T12:56:55.281Z,26.78
2022-08-30T12:59:56.833Z,26.79
2022-08-30T13:02:48.887Z,26.81
2022-08-30T13:05:52.867Z,26.84
2022-08-30T13:08:23.923Z,26.85
2022-08-30T13:10:52.839Z,26.84
2022-08-30T13:13:30.021Z,26.82
2022-08-30T13:15:58.800Z,26.78
2022-08-30T13:18:33.505Z,26.78
2022-08-30T13:21:20.069Z,26.77
2022-08-30T13:23:48.343Z,26.74
2022-08-30T13:26:23.219Z,26.75
2022-08-30T13:28:58.119Z,26.73
2022-08-30T13:31:28.324Z,26.72
2022-08-30T13:33:59.297Z,26.73
2022-08-30T13:36:31.770Z,26.75
2022-08-30T13:39:01.902Z,26.75
2022-08-30T13:41:34.452Z,26.77
2022-08-30T13:44:11.314Z,26.81
2022-08-30T13:46:43.087Z,26.85
2022-08-30T13:52:20.525Z,27.03
2022-08-30T13:54:52.679Z,27.10
2022-08-30T14:00:18.386Z,27.17
2022-08-30T14:02:53.857Z,27.20
2022-08-30T14:06:09.860Z,27.19
2022-08-30T14:11:00.087Z,27.20
2022-08-30T14:13:30.128Z,27.19
2022-08-30T14:18:49.040Z,27.18
2022-08-30T14:21:17.113Z,27.15
2022-08-30T14:23:49.634Z,27.13
2022-08-30T14:26:27.904Z,27.11
2022-08-30T14:29:00.803Z,27.08
2022-08-30T14:31:28.658Z,27.02
2022-08-30T14:33:56.630Z,26.99
2022-08-30T14:36:24.371Z,26.99
2022-08-30T14:38:52.367Z,26.97
2022-08-30T14:41:20.229Z,26.96
2022-08-30T14:43:47.945Z,26.93
2022-08-30T14:46:15.756Z,26.90
2022-08-30T14:48:44.122Z,26.86
2022-08-30T14:51:20.527Z,26.83
2022-08-30T14:53:48.689Z,26.79
2022-08-30T14:56:19.617Z,26.77
2022-08-30T14:58:52.729Z,26.77
2022-08-30T15:01:21.201Z,26.75
2022-08-30T15:03:49.068Z,26.76
2022-08-30T15:06:19.101Z,26.75
2022-08-30T15:08:48.450Z,26.77
2022-08-30T15:11:19.846Z,26.78
2022-08-30T15:13:48.253Z,26.80
2022-08-30T15:16:25.444Z,26.81
2022-08-30T15:18:54.353Z,26.83
2022-08-30T15:21:49.789Z,26.84
2022-08-30T15:24:24.766Z,26.86
2022-08-30T15:26:58.094Z,26.87
2022-08-30T15:29:30.417Z,26.87
2022-08-30T15:32:00.096Z,26.88
2022-08-30T15:34:28.634Z,26.86
2022-08-30T15:36:57.233Z,26.84
2022-08-30T15:39:25.017Z,26.78
2022-08-30T15:41:57.287Z,26.76
2022-08-30T15:44:27.659Z,26.70
2022-08-30T15:46:55.542Z,26.67
2022-08-30T15:49:24.648Z,26.62
2022-08-30T15:51:53.985Z,26.60
2022-08-30T15:54:24.248Z,26.58
2022-08-30T15:57:00.144Z,26.56
2022-08-30T15:59:30.693Z,26.56
2022-08-30T16:01:59.496Z,26.55
2022-08-30T16:04:27.550Z,26.57
2022-08-30T16:06:55.468Z,26.57
2022-08-30T16:09:23.965Z,26.59
2022-08-30T16:11:51.818Z,26.57
2022-08-30T16:14:19.756Z,26.57
2022-08-30T16:16:47.591Z,26.55
2022-08-30T16:19:15.667Z,26.55
2022-08-30T16:21:44.829Z,26.55
2022-08-30T16:24:14.262Z,26.52
2022-08-30T16:26:43.515Z,26.51
2022-08-30T16:29:13.495Z,26.48
2022-08-30T16:31:44.765Z,26.44
2022-08-30T16:34:14.425Z,26.41
2022-08-30T16:36:42.182Z,26.36
2022-08-30T16:39:11.171Z,26.33
2022-08-30T16:41:40.025Z,26.31
2022-08-30T16:44:08.461Z,26.28
2022-08-30T16:46:37.250Z,26.26
2022-08-30T16:49:06.826Z,26.24
2022-08-30T16:51:37.433Z,26.23
2022-08-30T16:54:08.279Z,26.22
2022-08-30T16:56:37.827Z,26.19
2022-08-30T16:59:11.146Z,26.18
2022-08-30T17:01:39.923Z,26.14
2022-08-30T17:04:09.242Z,26.10
2022-08-30T17:06:38.000Z,26.04
2022-08-30T17:09:07.701Z,25.99
2022-08-30T17:11:40.314Z,25.94
2022-08-30T17:14:08.770Z,25.87
2022-08-30T17:16:38.356Z,25.80
2022-08-30T17:19:08.321Z,25.73
2022-08-30T17:21:36.157Z,25.64
2022-08-30T17:24:06.802Z,25.59
2022-08-30T17:26:37.634Z,25.53
2022-08-30T17:31:54.789Z,25.40
2022-08-30T17:34:23.757Z,25.32
2022-08-30T17:36:56.023Z,25.27
2022-08-30T17:39:24.610Z,25.20
2022-08-30T17:41:52.739Z,25.17
2022-08-30T17:44:25.928Z,25.11
2022-08-30T17:46:54.429Z,25.07
2022-08-30T17:49:22.937Z,24.99
2022-08-30T17:51:56.352Z,24.92
2022-08-30T17:54:25.909Z,24.87
2022-08-30T17:56:54.505Z,24.82
2022-08-30T17:59:25.061Z,24.73
2022-08-30T18:01:54.610Z,24.66
2022-08-30T18:04:24.762Z,24.59
2022-08-30T18:06:53.238Z,24.52
2022-08-30T18:09:21.822Z,24.43
2022-08-30T18:11:50.373Z,24.35
2022-08-30T18:14:18.432Z,24.30
2022-08-30T18:16:49.937Z,24.23
2022-08-30T18:19:22.231Z,24.15
2022-08-30T18:21:50.025Z,24.10
2022-08-30T18:24:18.143Z,24.02
2022-08-30T18:26:46.133Z,23.97
2022-08-30T18:29:13.935Z,23.92
2022-08-30T18:31:42.021Z,23.86
2022-08-30T18:34:12.369Z,23.83
2022-08-30T18:36:41.373Z,23.77
2022-08-30T18:39:09.466Z,23.72
2022-08-30T18:41:43.231Z,23.65
2022-08-30T18:44:27.409Z,23.60
2022-08-30T18:49:44.418Z,23.51
2022-08-30T18:52:12.332Z,23.48
2022-08-30T18:54:42.645Z,23.42
2022-08-30T18:57:10.832Z,23.40
2022-08-30T18:59:42.020Z,23.36
2022-08-30T19:02:17.523Z,23.32
2022-08-30T19:04:46.504Z,23.27
2022-08-30T19:07:17.745Z,23.22
2022-08-30T19:09:46.439Z,23.18
2022-08-30T19:12:14.782Z,23.15
2022-08-30T19:14:44.218Z,23.11
2022-08-30T19:17:12.119Z,23.06
2022-08-30T19:19:48.315Z,23.03
2022-08-30T19:22:17.220Z,23.00
2022-08-30T19:24:46.642Z,22.97
2022-08-30T19:27:14.351Z,22.96
2022-08-30T19:29:42.088Z,22.93
2022-08-30T19:32:12.328Z,22.89
2022-08-30T19:34:40.978Z,22.86
2022-08-30T19:37:09.102Z,22.82
2022-08-30T19:39:42.683Z,22.78
2022-08-30T19:42:10.544Z,22.76
2022-08-30T19:44:38.829Z,22.70
2022-08-30T19:47:07.500Z,22.69
2022-08-30T19:49:36.875Z,22.66
2022-08-30T19:52:04.964Z,22.63
2022-08-30T19:54:32.685Z,22.61
2022-08-30T19:57:00.787Z,22.57
2022-08-30T19:59:28.598Z,22.54
2022-08-30T20:01:57.899Z,22.49
2022-08-30T20:04:26.741Z,22.49
2022-08-30T20:06:54.674Z,22.46
2022-08-30T20:09:23.462Z,22.42
2022-08-30T20:11:52.575Z,22.36
2022-08-30T20:14:23.186Z,22.30
2022-08-30T20:16:52.495Z,22.26
2022-08-30T20:19:21.882Z,22.20
2022-08-30T20:21:55.456Z,22.17
2022-08-30T20:24:24.964Z,25.45
2022-08-30T20:24:29.517Z,23.55
2022-08-30T20:24:32.087Z,22.11
2022-08-30T20:27:00.049Z,22.07
2022-08-30T20:29:27.761Z,22.08
2022-08-30T20:31:55.427Z,22.07
2022-08-30T20:34:28.372Z,22.07
2022-08-30T20:36:57.609Z,22.09
2022-08-30T20:39:26.682Z,22.08
2022-08-30T20:41:54.596Z,22.09
2022-08-30T20:44:22.367Z,22.11
2022-08-30T20:46:51.815Z,22.10
2022-08-30T20:49:20.704Z,22.08
2022-08-30T20:51:52.950Z,22.06
2022-08-30T20:54:22.383Z,22.19
2022-08-30T20:56:51.149Z,22.22
2022-08-30T20:59:18.959Z,22.27
2022-08-30T21:01:48.782Z,22.24
2022-08-30T21:04:17.853Z,22.22
2022-08-30T21:06:45.647Z,22.17
2022-08-30T21:09:13.592Z,22.13
2022-08-30T21:11:42.243Z,22.15
2022-08-30T21:14:12.386Z,22.10
2022-08-30T21:16:40.460Z,22.11
2022-08-30T21:19:08.360Z,22.08
2022-08-30T21:21:36.107Z,22.11
2022-08-30T21:24:11.051Z,22.03
2022-08-30T21:26:40.993Z,22.08
2022-08-30T21:29:09.744Z,22.04
2022-08-30T21:31:40.684Z,22.06
2022-08-30T21:34:08.850Z,22.05
2022-08-30T21:36:48.054Z,22.00
2022-08-30T21:39:20.885Z,21.90
2022-08-30T21:41:50.306Z,21.81
2022-08-30T21:44:22.547Z,21.75
2022-08-30T21:46:53.282Z,21.77
2022-08-30T21:49:23.465Z,21.71
2022-08-30T21:51:53.742Z,21.67
2022-08-30T21:54:22.539Z,21.65
2022-08-30T21:56:51.899Z,21.57
2022-08-30T21:59:20.706Z,21.56
2022-08-30T22:01:49.702Z,21.48
2022-08-30T22:04:17.725Z,21.51
2022-08-30T22:06:51.233Z,21.44
2022-08-30T22:09:22.488Z,21.44
2022-08-30T22:11:50.897Z,21.32
2022-08-30T22:14:21.214Z,21.21
2022-08-30T22:16:49.885Z,21.02
2022-08-30T22:19:22.891Z,20.88
2022-08-30T22:21:51.569Z,20.90
2022-08-30T22:24:19.539Z,20.81
2022-08-30T22:26:47.810Z,20.73
2022-08-30T22:29:16.370Z,20.68
2022-08-30T22:31:44.434Z,20.73
2022-08-30T22:34:12.499Z,20.74
2022-08-30T22:36:40.352Z,20.74
2022-08-30T22:39:09.927Z,20.59
2022-08-30T22:41:38.947Z,20.49
2022-08-30T22:44:07.503Z,20.41
2022-08-30T22:46:36.900Z,20.37
2022-08-30T22:49:09.901Z,20.34
2022-08-30T22:51:38.468Z,20.32
2022-08-30T22:54:07.878Z,20.34
2022-08-30T22:56:37.863Z,20.30
2022-08-30T22:59:06.469Z,20.30
2022-08-30T23:01:38.030Z,20.25
2022-08-30T23:04:08.228Z,20.21
2022-08-30T23:06:36.010Z,20.12
2022-08-30T23:09:04.661Z,20.13
2022-08-30T23:11:33.320Z,20.06
2022-08-30T23:14:02.169Z,20.01
2022-08-30T23:16:30.488Z,20.06
2022-08-30T23:18:58.237Z,20.05
2022-08-30T23:21:29.918Z,20.04
2022-08-30T23:24:17.398Z,19.94
2022-08-30T23:27:04.963Z,19.85
2022-08-30T23:29:52.397Z,19.83
2022-08-30T23:32:39.201Z,19.84
2022-08-30T23:35:29.201Z,19.81
2022-08-30T23:38:17.248Z,19.85
2022-08-30T23:41:03.874Z,19.84
2022-08-30T23:43:50.267Z,19.67
2022-08-30T23:46:37.209Z,19.56
2022-08-30T23:49:24.282Z,19.58
2022-08-30T23:52:10.444Z,19.45
2022-08-30T23:54:57.431Z,19.31
2022-08-30T23:57:45.115Z,19.14
